sensor_id;sensor_type;location;lat;lon;timestamp;temperature;humidity
45012;DHT22;63444;48.148;11.542;2023-04-25T00:00:45;9.40;99.90
45012;DHT22;63444;48.148;11.542;2023-04-25T00:03:11;9.40;99.90
45012;DHT22;63444;48.148;11.542;2023-04-25T00:05:36;9.40;99.90
45012;DHT22;63444;48.148;11.542;2023-04-25T00:08:03;9.40;99.90
45012;DHT22;63444;48.148;11.542;2023-04-25T00:10:29;9.40;99.90
45012;DHT22;63444;48.148;11.542;2023-04-25T00:12:54;9.40;99.90
45012;DHT22;63444;48.148;11.542;2023-04-25T00:15:20;9.40;99.90
45012;DHT22;63444;48.148;11.542;2023-04-25T00:17:46;9.40;99.90
45012;DHT22;63444;48.148;11.542;2023-04-25T00:20:12;9.40;99.90
45012;DHT22;63444;48.148;11.542;2023-04-25T00:22:38;9.40;99.90
45012;DHT22;63444;48.148;11.542;2023-04-25T00:25:07;9.30;99.90
45012;DHT22;63444;48.148;11.542;2023-04-25T00:27:33;9.20;99.90
45012;DHT22;63444;48.148;11.542;2023-04-25T00:29:58;9.30;99.90
45012;DHT22;63444;48.148;11.542;2023-04-25T00:32:25;9.30;99.90
45012;DHT22;63444;48.148;11.542;2023-04-25T00:34:50;9.40;99.90
45012;DHT22;63444;48.148;11.542;2023-04-25T00:37:16;9.30;99.90
45012;DHT22;63444;48.148;11.542;2023-04-25T00:39:41;9.40;99.90
45012;DHT22;63444;48.148;11.542;2023-04-25T00:42:08;9.50;99.90
45012;DHT22;63444;48.148;11.542;2023-04-25T00:44:35;9.50;99.90
45012;DHT22;63444;48.148;11.542;2023-04-25T00:47:02;9.50;99.90
45012;DHT22;63444;48.148;11.542;2023-04-25T00:49:28;9.50;99.90
45012;DHT22;63444;48.148;11.542;2023-04-25T00:51:54;9.50;99.90
45012;DHT22;63444;48.148;11.542;2023-04-25T00:54:20;9.50;99.90
45012;DHT22;63444;48.148;11.542;2023-04-25T00:56:46;9.50;99.90
45012;DHT22;63444;48.148;11.542;2023-04-25T00:59:11;9.50;99.90
45012;DHT22;63444;48.148;11.542;2023-04-25T01:01:38;9.50;99.90
45012;DHT22;63444;48.148;11.542;2023-04-25T01:04:04;9.60;99.90
45012;DHT22;63444;48.148;11.542;2023-04-25T01:06:30;9.50;99.90
45012;DHT22;63444;48.148;11.542;2023-04-25T01:08:57;9.50;99.90
45012;DHT22;63444;48.148;11.542;2023-04-25T01:11:24;9.50;99.90
45012;DHT22;63444;48.148;11.542;2023-04-25T01:13:50;9.40;99.90
45012;DHT22;63444;48.148;11.542;2023-04-25T01:16:15;9.40;99.90
45012;DHT22;63444;48.148;11.542;2023-04-25T01:18:41;9.30;99.90
45012;DHT22;63444;48.148;11.542;2023-04-25T01:21:12;9.40;99.90
45012;DHT22;63444;48.148;11.542;2023-04-25T01:23:40;9.30;99.90
45012;DHT22;63444;48.148;11.542;2023-04-25T01:26:10;9.30;99.90
45012;DHT22;63444;48.148;11.542;2023-04-25T01:28:37;9.30;99.90
45012;DHT22;63444;48.148;11.542;2023-04-25T01:31:03;9.30;99.90
45012;DHT22;63444;48.148;11.542;2023-04-25T01:33:29;9.30;99.90
45012;DHT22;63444;48.148;11.542;2023-04-25T01:35:55;9.30;99.90
45012;DHT22;63444;48.148;11.542;2023-04-25T01:38:20;9.30;99.90
45012;DHT22;63444;48.148;11.542;2023-04-25T01:40:46;9.30;99.90
45012;DHT22;63444;48.148;11.542;2023-04-25T01:43:12;9.20;99.90
45012;DHT22;63444;48.148;11.542;2023-04-25T01:45:40;9.20;99.90
45012;DHT22;63444;48.148;11.542;2023-04-25T01:48:07;9.20;99.90
45012;DHT22;63444;48.148;11.542;2023-04-25T01:50:33;9.20;99.90
45012;DHT22;63444;48.148;11.542;2023-04-25T01:52:59;9.20;99.90
45012;DHT22;63444;48.148;11.542;2023-04-25T01:55:25;9.20;99.90
45012;DHT22;63444;48.148;11.542;2023-04-25T01:57:51;9.20;99.90
45012;DHT22;63444;48.148;11.542;2023-04-25T02:00:17;9.20;99.90
45012;DHT22;63444;48.148;11.542;2023-04-25T02:02:43;9.10;99.90
45012;DHT22;63444;48.148;11.542;2023-04-25T02:05:08;9.10;99.90
45012;DHT22;63444;48.148;11.542;2023-04-25T02:07:34;9.00;99.90
45012;DHT22;63444;48.148;11.542;2023-04-25T02:10:00;9.00;99.90
45012;DHT22;63444;48.148;11.542;2023-04-25T02:12:26;9.00;99.90
45012;DHT22;63444;48.148;11.542;2023-04-25T02:14:52;9.00;99.90
45012;DHT22;63444;48.148;11.542;2023-04-25T02:17:18;9.00;99.90
45012;DHT22;63444;48.148;11.542;2023-04-25T02:19:44;8.90;99.90
45012;DHT22;63444;48.148;11.542;2023-04-25T02:22:10;8.90;99.90
45012;DHT22;63444;48.148;11.542;2023-04-25T02:24:36;8.80;99.90
45012;DHT22;63444;48.148;11.542;2023-04-25T02:27:01;8.80;99.90
45012;DHT22;63444;48.148;11.542;2023-04-25T02:29:27;8.80;99.90
45012;DHT22;63444;48.148;11.542;2023-04-25T02:31:53;9.10;99.90
45012;DHT22;63444;48.148;11.542;2023-04-25T02:34:18;8.90;99.90
45012;DHT22;63444;48.148;11.542;2023-04-25T02:36:44;8.90;99.90
45012;DHT22;63444;48.148;11.542;2023-04-25T02:39:10;8.80;99.90
45012;DHT22;63444;48.148;11.542;2023-04-25T02:41:36;8.90;99.90
45012;DHT22;63444;48.148;11.542;2023-04-25T02:44:01;8.90;99.90
45012;DHT22;63444;48.148;11.542;2023-04-25T02:46:27;8.90;99.90
45012;DHT22;63444;48.148;11.542;2023-04-25T02:48:52;8.90;99.90
45012;DHT22;63444;48.148;11.542;2023-04-25T02:51:18;8.90;99.90
45012;DHT22;63444;48.148;11.542;2023-04-25T02:53:44;8.90;99.90
45012;DHT22;63444;48.148;11.542;2023-04-25T02:56:09;8.90;99.90
45012;DHT22;63444;48.148;11.542;2023-04-25T02:58:35;8.90;99.90
45012;DHT22;63444;48.148;11.542;2023-04-25T03:01:01;8.90;99.90
45012;DHT22;63444;48.148;11.542;2023-04-25T03:03:26;8.90;99.90
45012;DHT22;63444;48.148;11.542;2023-04-25T03:05:52;9.00;99.90
45012;DHT22;63444;48.148;11.542;2023-04-25T03:08:18;8.90;99.90
45012;DHT22;63444;48.148;11.542;2023-04-25T03:10:44;8.90;99.90
45012;DHT22;63444;48.148;11.542;2023-04-25T03:13:10;8.90;99.90
45012;DHT22;63444;48.148;11.542;2023-04-25T03:15:36;8.90;99.90
45012;DHT22;63444;48.148;11.542;2023-04-25T03:18:02;8.80;99.90
45012;DHT22;63444;48.148;11.542;2023-04-25T03:20:28;8.80;99.90
45012;DHT22;63444;48.148;11.542;2023-04-25T03:22:54;8.70;99.90
45012;DHT22;63444;48.148;11.542;2023-04-25T03:25:19;8.70;99.90
45012;DHT22;63444;48.148;11.542;2023-04-25T03:27:45;8.70;99.90
45012;DHT22;63444;48.148;11.542;2023-04-25T03:30:11;8.70;99.90
45012;DHT22;63444;48.148;11.542;2023-04-25T03:32:36;8.60;99.90
45012;DHT22;63444;48.148;11.542;2023-04-25T03:35:02;8.60;99.90
45012;DHT22;63444;48.148;11.542;2023-04-25T03:37:28;8.60;99.90
45012;DHT22;63444;48.148;11.542;2023-04-25T03:39:54;8.50;99.90
45012;DHT22;63444;48.148;11.542;2023-04-25T03:42:20;8.50;99.90
45012;DHT22;63444;48.148;11.542;2023-04-25T03:44:48;8.60;99.90
45012;DHT22;63444;48.148;11.542;2023-04-25T03:47:14;8.60;99.90
45012;DHT22;63444;48.148;11.542;2023-04-25T03:49:39;8.60;99.90
45012;DHT22;63444;48.148;11.542;2023-04-25T03:52:05;8.60;99.90
45012;DHT22;63444;48.148;11.542;2023-04-25T03:54:30;8.50;99.90
45012;DHT22;63444;48.148;11.542;2023-04-25T03:56:56;8.40;99.90
45012;DHT22;63444;48.148;11.542;2023-04-25T03:59:22;8.10;99.90
45012;DHT22;63444;48.148;11.542;2023-04-25T04:01:47;8.30;99.90
45012;DHT22;63444;48.148;11.542;2023-04-25T04:04:13;8.20;99.90
45012;DHT22;63444;48.148;11.542;2023-04-25T04:06:39;8.10;99.90
45012;DHT22;63444;48.148;11.542;2023-04-25T04:09:05;8.20;99.90
45012;DHT22;63444;48.148;11.542;2023-04-25T04:11:34;8.20;99.90
45012;DHT22;63444;48.148;11.542;2023-04-25T04:14:02;8.20;99.90
45012;DHT22;63444;48.148;11.542;2023-04-25T04:16:27;8.20;99.90
45012;DHT22;63444;48.148;11.542;2023-04-25T04:18:53;8.20;99.90
45012;DHT22;63444;48.148;11.542;2023-04-25T04:21:18;8.10;99.90
45012;DHT22;63444;48.148;11.542;2023-04-25T04:23:44;8.10;99.90
45012;DHT22;63444;48.148;11.542;2023-04-25T04:26:10;8.10;99.90
45012;DHT22;63444;48.148;11.542;2023-04-25T04:28:36;8.00;99.90
45012;DHT22;63444;48.148;11.542;2023-04-25T04:31:03;7.90;99.90
45012;DHT22;63444;48.148;11.542;2023-04-25T04:33:28;7.90;99.90
45012;DHT22;63444;48.148;11.542;2023-04-25T04:35:56;8.00;99.90
45012;DHT22;63444;48.148;11.542;2023-04-25T04:38:21;8.10;99.90
45012;DHT22;63444;48.148;11.542;2023-04-25T04:40:47;8.10;99.90
45012;DHT22;63444;48.148;11.542;2023-04-25T04:43:13;8.10;99.90
45012;DHT22;63444;48.148;11.542;2023-04-25T04:45:42;8.10;99.90
45012;DHT22;63444;48.148;11.542;2023-04-25T04:48:08;8.10;99.90
45012;DHT22;63444;48.148;11.542;2023-04-25T04:50:34;8.10;99.90
45012;DHT22;63444;48.148;11.542;2023-04-25T04:53:01;8.00;99.90
45012;DHT22;63444;48.148;11.542;2023-04-25T04:55:27;8.00;99.90
45012;DHT22;63444;48.148;11.542;2023-04-25T04:57:52;8.00;99.90
45012;DHT22;63444;48.148;11.542;2023-04-25T05:00:18;8.20;99.90
45012;DHT22;63444;48.148;11.542;2023-04-25T05:02:43;8.10;99.90
45012;DHT22;63444;48.148;11.542;2023-04-25T05:05:09;8.20;99.90
45012;DHT22;63444;48.148;11.542;2023-04-25T05:07:35;8.20;99.90
45012;DHT22;63444;48.148;11.542;2023-04-25T05:10:01;8.30;99.90
45012;DHT22;63444;48.148;11.542;2023-04-25T05:12:27;8.30;99.90
45012;DHT22;63444;48.148;11.542;2023-04-25T05:14:53;8.10;99.90
45012;DHT22;63444;48.148;11.542;2023-04-25T05:17:18;8.10;99.90
45012;DHT22;63444;48.148;11.542;2023-04-25T05:19:44;8.10;99.90
45012;DHT22;63444;48.148;11.542;2023-04-25T05:22:10;8.00;99.90
45012;DHT22;63444;48.148;11.542;2023-04-25T05:24:35;8.00;99.90
45012;DHT22;63444;48.148;11.542;2023-04-25T05:27:01;8.00;99.90
45012;DHT22;63444;48.148;11.542;2023-04-25T05:29:26;8.00;99.90
45012;DHT22;63444;48.148;11.542;2023-04-25T05:31:52;8.00;99.90
45012;DHT22;63444;48.148;11.542;2023-04-25T05:34:18;8.00;99.90
45012;DHT22;63444;48.148;11.542;2023-04-25T05:36:43;8.30;99.90
45012;DHT22;63444;48.148;11.542;2023-04-25T05:39:09;8.00;99.90
45012;DHT22;63444;48.148;11.542;2023-04-25T05:41:35;8.10;99.90
45012;DHT22;63444;48.148;11.542;2023-04-25T05:44:01;8.20;99.90
45012;DHT22;63444;48.148;11.542;2023-04-25T05:46:27;8.30;99.90
45012;DHT22;63444;48.148;11.542;2023-04-25T05:48:53;8.20;99.90
45012;DHT22;63444;48.148;11.542;2023-04-25T05:51:18;8.20;99.90
45012;DHT22;63444;48.148;11.542;2023-04-25T05:53:44;8.20;99.90
45012;DHT22;63444;48.148;11.542;2023-04-25T05:56:10;8.20;99.90
45012;DHT22;63444;48.148;11.542;2023-04-25T05:58:36;8.10;99.90
45012;DHT22;63444;48.148;11.542;2023-04-25T06:01:02;8.10;99.90
45012;DHT22;63444;48.148;11.542;2023-04-25T06:03:28;7.90;99.90
45012;DHT22;63444;48.148;11.542;2023-04-25T06:05:53;7.80;99.90
45012;DHT22;63444;48.148;11.542;2023-04-25T06:08:19;7.70;99.90
45012;DHT22;63444;48.148;11.542;2023-04-25T06:10:45;7.70;99.90
45012;DHT22;63444;48.148;11.542;2023-04-25T06:13:11;7.70;99.90
45012;DHT22;63444;48.148;11.542;2023-04-25T06:15:36;7.60;99.90
45012;DHT22;63444;48.148;11.542;2023-04-25T06:18:02;7.50;99.90
45012;DHT22;63444;48.148;11.542;2023-04-25T06:20:27;7.50;99.90
45012;DHT22;63444;48.148;11.542;2023-04-25T06:22:53;7.50;99.90
45012;DHT22;63444;48.148;11.542;2023-04-25T06:25:19;7.50;99.90
45012;DHT22;63444;48.148;11.542;2023-04-25T06:27:45;7.60;99.90
45012;DHT22;63444;48.148;11.542;2023-04-25T06:30:11;7.60;99.90
45012;DHT22;63444;48.148;11.542;2023-04-25T06:32:38;7.70;99.90
45012;DHT22;63444;48.148;11.542;2023-04-25T06:35:04;7.70;99.90
45012;DHT22;63444;48.148;11.542;2023-04-25T06:37:30;7.70;99.90
45012;DHT22;63444;48.148;11.542;2023-04-25T06:39:56;7.80;99.90
45012;DHT22;63444;48.148;11.542;2023-04-25T06:42:21;7.70;99.90
45012;DHT22;63444;48.148;11.542;2023-04-25T06:44:47;7.80;99.90
45012;DHT22;63444;48.148;11.542;2023-04-25T06:47:13;7.80;99.90
45012;DHT22;63444;48.148;11.542;2023-04-25T06:49:38;7.90;99.90
45012;DHT22;63444;48.148;11.542;2023-04-25T06:52:04;8.00;99.90
45012;DHT22;63444;48.148;11.542;2023-04-25T06:54:30;8.10;99.90
45012;DHT22;63444;48.148;11.542;2023-04-25T06:56:56;8.30;99.90
45012;DHT22;63444;48.148;11.542;2023-04-25T06:59:22;8.50;99.90
45012;DHT22;63444;48.148;11.542;2023-04-25T07:01:47;8.70;99.90
45012;DHT22;63444;48.148;11.542;2023-04-25T07:04:13;9.10;99.90
45012;DHT22;63444;48.148;11.542;2023-04-25T07:06:39;9.00;99.90
45012;DHT22;63444;48.148;11.542;2023-04-25T07:09:08;9.10;99.90
45012;DHT22;63444;48.148;11.542;2023-04-25T07:11:35;9.20;99.90
45012;DHT22;63444;48.148;11.542;2023-04-25T07:14:01;9.10;99.90
45012;DHT22;63444;48.148;11.542;2023-04-25T07:16:27;9.20;99.90
45012;DHT22;63444;48.148;11.542;2023-04-25T07:18:53;9.10;99.90
45012;DHT22;63444;48.148;11.542;2023-04-25T07:21:18;9.20;99.90
45012;DHT22;63444;48.148;11.542;2023-04-25T07:23:44;9.20;99.90
45012;DHT22;63444;48.148;11.542;2023-04-25T07:26:10;9.10;99.90
45012;DHT22;63444;48.148;11.542;2023-04-25T07:28:36;9.00;99.90
45012;DHT22;63444;48.148;11.542;2023-04-25T07:31:01;9.20;99.90
45012;DHT22;63444;48.148;11.542;2023-04-25T07:33:27;9.20;99.90
45012;DHT22;63444;48.148;11.542;2023-04-25T07:35:53;9.30;99.90
45012;DHT22;63444;48.148;11.542;2023-04-25T07:38:19;9.40;99.90
45012;DHT22;63444;48.148;11.542;2023-04-25T07:40:44;9.50;99.90
45012;DHT22;63444;48.148;11.542;2023-04-25T07:43:10;9.50;99.90
45012;DHT22;63444;48.148;11.542;2023-04-25T07:45:39;9.70;99.90
45012;DHT22;63444;48.148;11.542;2023-04-25T07:48:05;9.70;99.90
45012;DHT22;63444;48.148;11.542;2023-04-25T07:50:31;10.00;99.90
45012;DHT22;63444;48.148;11.542;2023-04-25T07:52:56;9.90;99.90
45012;DHT22;63444;48.148;11.542;2023-04-25T07:55:22;9.90;99.90
45012;DHT22;63444;48.148;11.542;2023-04-25T07:57:47;10.10;99.90
45012;DHT22;63444;48.148;11.542;2023-04-25T08:00:13;10.30;99.90
45012;DHT22;63444;48.148;11.542;2023-04-25T08:02:40;10.40;99.90
45012;DHT22;63444;48.148;11.542;2023-04-25T08:05:06;10.60;99.90
45012;DHT22;63444;48.148;11.542;2023-04-25T08:07:33;10.80;99.90
45012;DHT22;63444;48.148;11.542;2023-04-25T08:09:59;11.10;99.90
45012;DHT22;63444;48.148;11.542;2023-04-25T08:12:25;11.30;99.90
45012;DHT22;63444;48.148;11.542;2023-04-25T08:14:51;11.50;99.90
45012;DHT22;63444;48.148;11.542;2023-04-25T08:17:16;11.70;99.90
45012;DHT22;63444;48.148;11.542;2023-04-25T08:19:42;11.80;99.90
45012;DHT22;63444;48.148;11.542;2023-04-25T08:22:07;11.70;99.90
45012;DHT22;63444;48.148;11.542;2023-04-25T08:24:33;11.70;99.90
45012;DHT22;63444;48.148;11.542;2023-04-25T08:26:59;11.60;99.90
45012;DHT22;63444;48.148;11.542;2023-04-25T08:29:24;11.60;99.90
45012;DHT22;63444;48.148;11.542;2023-04-25T08:31:51;11.60;99.90
45012;DHT22;63444;48.148;11.542;2023-04-25T08:34:18;11.60;99.90
45012;DHT22;63444;48.148;11.542;2023-04-25T08:36:45;11.60;99.90
45012;DHT22;63444;48.148;11.542;2023-04-25T08:39:11;11.70;99.90
45012;DHT22;63444;48.148;11.542;2023-04-25T08:41:37;11.80;99.90
45012;DHT22;63444;48.148;11.542;2023-04-25T08:44:03;11.90;99.90
45012;DHT22;63444;48.148;11.542;2023-04-25T08:46:31;12.00;99.90
45012;DHT22;63444;48.148;11.542;2023-04-25T08:49:01;12.30;99.90
45012;DHT22;63444;48.148;11.542;2023-04-25T08:51:31;12.60;99.90
45012;DHT22;63444;48.148;11.542;2023-04-25T08:54:10;12.90;99.90
45012;DHT22;63444;48.148;11.542;2023-04-25T08:56:38;13.50;99.60
45012;DHT22;63444;48.148;11.542;2023-04-25T08:59:05;13.80;98.00
45012;DHT22;63444;48.148;11.542;2023-04-25T09:01:36;14.00;96.90
45012;DHT22;63444;48.148;11.542;2023-04-25T09:04:02;14.00;96.40
45012;DHT22;63444;48.148;11.542;2023-04-25T09:06:31;14.20;95.60
45012;DHT22;63444;48.148;11.542;2023-04-25T09:09:08;14.40;97.00
45012;DHT22;63444;48.148;11.542;2023-04-25T09:11:35;14.60;96.10
45012;DHT22;63444;48.148;11.542;2023-04-25T09:14:30;14.90;95.10
45012;DHT22;63444;48.148;11.542;2023-04-25T09:19:22;15.00;94.40
45012;DHT22;63444;48.148;11.542;2023-04-25T09:21:49;15.10;94.40
45012;DHT22;63444;48.148;11.542;2023-04-25T09:24:15;15.10;94.40
45012;DHT22;63444;48.148;11.542;2023-04-25T09:26:40;15.00;94.20
45012;DHT22;63444;48.148;11.542;2023-04-25T09:29:07;15.00;93.30
45012;DHT22;63444;48.148;11.542;2023-04-25T09:31:33;14.80;92.80
45012;DHT22;63444;48.148;11.542;2023-04-25T09:34:00;14.90;92.70
45012;DHT22;63444;48.148;11.542;2023-04-25T09:36:30;14.90;92.50
45012;DHT22;63444;48.148;11.542;2023-04-25T09:38:55;14.60;91.60
45012;DHT22;63444;48.148;11.542;2023-04-25T09:41:24;14.60;92.10
45012;DHT22;63444;48.148;11.542;2023-04-25T09:43:50;14.60;92.20
45012;DHT22;63444;48.148;11.542;2023-04-25T09:46:16;14.50;91.80
45012;DHT22;63444;48.148;11.542;2023-04-25T09:48:49;14.60;91.60
45012;DHT22;63444;48.148;11.542;2023-04-25T09:51:15;14.60;91.20
45012;DHT22;63444;48.148;11.542;2023-04-25T09:53:43;14.60;91.10
45012;DHT22;63444;48.148;11.542;2023-04-25T09:56:12;14.50;91.40
45012;DHT22;63444;48.148;11.542;2023-04-25T09:58:40;15.00;91.70
45012;DHT22;63444;48.148;11.542;2023-04-25T10:01:07;15.10;91.40
45012;DHT22;63444;48.148;11.542;2023-04-25T10:03:35;15.20;90.70
45012;DHT22;63444;48.148;11.542;2023-04-25T10:06:01;15.10;90.10
45012;DHT22;63444;48.148;11.542;2023-04-25T10:08:37;15.00;90.00
45012;DHT22;63444;48.148;11.542;2023-04-25T10:11:05;14.90;90.70
45012;DHT22;63444;48.148;11.542;2023-04-25T10:13:31;14.80;90.80
45012;DHT22;63444;48.148;11.542;2023-04-25T10:15:58;14.90;90.70
45012;DHT22;63444;48.148;11.542;2023-04-25T10:18:25;15.10;90.70
45012;DHT22;63444;48.148;11.542;2023-04-25T10:20:54;15.30;90.90
45012;DHT22;63444;48.148;11.542;2023-04-25T10:23:20;15.50;91.40
45012;DHT22;63444;48.148;11.542;2023-04-25T10:25:46;15.70;88.10
45012;DHT22;63444;48.148;11.542;2023-04-25T10:28:12;15.40;88.30
45012;DHT22;63444;48.148;11.542;2023-04-25T10:31:03;15.20;88.70
45012;DHT22;63444;48.148;11.542;2023-04-25T10:33:36;15.00;88.70
45012;DHT22;63444;48.148;11.542;2023-04-25T10:36:13;14.70;89.60
45012;DHT22;63444;48.148;11.542;2023-04-25T10:38:39;14.50;91.00
45012;DHT22;63444;48.148;11.542;2023-04-25T10:41:07;14.30;92.50
45012;DHT22;63444;48.148;11.542;2023-04-25T10:43:44;13.90;92.50
45012;DHT22;63444;48.148;11.542;2023-04-25T10:48:50;13.20;92.10
45012;DHT22;63444;48.148;11.542;2023-04-25T10:51:18;13.00;92.50
45012;DHT22;63444;48.148;11.542;2023-04-25T10:53:45;12.60;92.30
45012;DHT22;63444;48.148;11.542;2023-04-25T10:56:19;12.50;92.90
45012;DHT22;63444;48.148;11.542;2023-04-25T10:58:46;12.40;93.40
45012;DHT22;63444;48.148;11.542;2023-04-25T11:01:19;12.40;94.40
45012;DHT22;63444;48.148;11.542;2023-04-25T11:03:45;12.30;94.90
45012;DHT22;63444;48.148;11.542;2023-04-25T11:06:36;12.30;95.70
45012;DHT22;63444;48.148;11.542;2023-04-25T11:09:03;12.40;95.60
45012;DHT22;63444;48.148;11.542;2023-04-25T11:11:36;12.40;95.50
45012;DHT22;63444;48.148;11.542;2023-04-25T11:14:02;12.30;95.00
45012;DHT22;63444;48.148;11.542;2023-04-25T11:16:27;12.30;95.10
45012;DHT22;63444;48.148;11.542;2023-04-25T11:18:53;12.20;94.80
45012;DHT22;63444;48.148;11.542;2023-04-25T11:21:22;12.30;95.40
45012;DHT22;63444;48.148;11.542;2023-04-25T11:23:49;12.50;95.80
45012;DHT22;63444;48.148;11.542;2023-04-25T11:26:15;12.60;95.10
45012;DHT22;63444;48.148;11.542;2023-04-25T11:28:45;12.60;95.00
45012;DHT22;63444;48.148;11.542;2023-04-25T11:31:10;12.70;96.00
45012;DHT22;63444;48.148;11.542;2023-04-25T11:33:36;12.60;95.50
45012;DHT22;63444;48.148;11.542;2023-04-25T11:36:02;12.70;94.90
45012;DHT22;63444;48.148;11.542;2023-04-25T11:38:28;12.50;95.30
45012;DHT22;63444;48.148;11.542;2023-04-25T11:40:53;12.40;95.30
45012;DHT22;63444;48.148;11.542;2023-04-25T11:43:22;12.30;96.00
45012;DHT22;63444;48.148;11.542;2023-04-25T11:45:49;12.30;96.70
45012;DHT22;63444;48.148;11.542;2023-04-25T11:48:16;12.10;96.60
45012;DHT22;63444;48.148;11.542;2023-04-25T11:50:42;12.10;97.10
45012;DHT22;63444;48.148;11.542;2023-04-25T11:53:08;11.90;98.40
45012;DHT22;63444;48.148;11.542;2023-04-25T11:55:34;11.40;99.70
45012;DHT22;63444;48.148;11.542;2023-04-25T11:58:00;11.20;99.90
45012;DHT22;63444;48.148;11.542;2023-04-25T12:00:27;11.10;99.90
45012;DHT22;63444;48.148;11.542;2023-04-25T12:02:54;11.00;99.90
45012;DHT22;63444;48.148;11.542;2023-04-25T12:05:24;10.90;99.90
45012;DHT22;63444;48.148;11.542;2023-04-25T12:07:50;10.90;99.90
45012;DHT22;63444;48.148;11.542;2023-04-25T12:10:17;10.90;99.90
45012;DHT22;63444;48.148;11.542;2023-04-25T12:12:45;10.80;99.90
45012;DHT22;63444;48.148;11.542;2023-04-25T12:15:16;10.50;99.90
45012;DHT22;63444;48.148;11.542;2023-04-25T12:17:45;10.50;99.90
45012;DHT22;63444;48.148;11.542;2023-04-25T12:20:16;10.40;99.90
45012;DHT22;63444;48.148;11.542;2023-04-25T12:22:44;10.20;99.90
45012;DHT22;63444;48.148;11.542;2023-04-25T12:25:14;10.10;99.90
45012;DHT22;63444;48.148;11.542;2023-04-25T12:31:00;9.90;99.90
45012;DHT22;63444;48.148;11.542;2023-04-25T12:33:34;10.00;99.90
45012;DHT22;63444;48.148;11.542;2023-04-25T12:36:02;10.10;99.90
45012;DHT22;63444;48.148;11.542;2023-04-25T12:38:40;10.20;99.90
45012;DHT22;63444;48.148;11.542;2023-04-25T12:41:06;10.40;99.90
45012;DHT22;63444;48.148;11.542;2023-04-25T12:43:31;10.40;99.90
45012;DHT22;63444;48.148;11.542;2023-04-25T12:45:57;10.40;99.90
45012;DHT22;63444;48.148;11.542;2023-04-25T12:48:23;10.30;99.90
45012;DHT22;63444;48.148;11.542;2023-04-25T12:50:50;10.30;99.90
45012;DHT22;63444;48.148;11.542;2023-04-25T12:53:17;10.40;99.90
45012;DHT22;63444;48.148;11.542;2023-04-25T12:55:42;10.50;99.90
45012;DHT22;63444;48.148;11.542;2023-04-25T12:58:08;10.40;99.90
45012;DHT22;63444;48.148;11.542;2023-04-25T13:00:34;10.40;99.90
45012;DHT22;63444;48.148;11.542;2023-04-25T13:02:59;10.40;99.90
45012;DHT22;63444;48.148;11.542;2023-04-25T13:05:26;10.40;99.90
45012;DHT22;63444;48.148;11.542;2023-04-25T13:07:51;10.20;99.90
45012;DHT22;63444;48.148;11.542;2023-04-25T13:10:17;10.20;99.90
45012;DHT22;63444;48.148;11.542;2023-04-25T13:12:43;10.20;99.90
45012;DHT22;63444;48.148;11.542;2023-04-25T13:15:09;10.10;99.90
45012;DHT22;63444;48.148;11.542;2023-04-25T13:17:37;10.10;99.90
45012;DHT22;63444;48.148;11.542;2023-04-25T13:20:06;10.00;99.90
45012;DHT22;63444;48.148;11.542;2023-04-25T13:22:34;10.00;99.90
45012;DHT22;63444;48.148;11.542;2023-04-25T13:25:02;10.00;99.90
45012;DHT22;63444;48.148;11.542;2023-04-25T13:27:28;10.10;99.90
45012;DHT22;63444;48.148;11.542;2023-04-25T13:29:54;10.30;99.90
45012;DHT22;63444;48.148;11.542;2023-04-25T13:32:19;10.20;99.90
45012;DHT22;63444;48.148;11.542;2023-04-25T13:34:45;10.30;99.90
45012;DHT22;63444;48.148;11.542;2023-04-25T13:37:11;10.20;99.90
45012;DHT22;63444;48.148;11.542;2023-04-25T13:39:36;10.30;99.90
45012;DHT22;63444;48.148;11.542;2023-04-25T13:42:02;10.10;99.90
45012;DHT22;63444;48.148;11.542;2023-04-25T13:44:28;10.20;99.90
45012;DHT22;63444;48.148;11.542;2023-04-25T13:46:54;10.10;99.90
45012;DHT22;63444;48.148;11.542;2023-04-25T13:49:19;10.00;99.90
45012;DHT22;63444;48.148;11.542;2023-04-25T13:51:45;10.00;99.90
45012;DHT22;63444;48.148;11.542;2023-04-25T13:54:11;10.00;99.90
45012;DHT22;63444;48.148;11.542;2023-04-25T13:56:36;10.00;99.90
45012;DHT22;63444;48.148;11.542;2023-04-25T13:59:02;10.00;99.90
45012;DHT22;63444;48.148;11.542;2023-04-25T14:01:28;10.00;99.90
45012;DHT22;63444;48.148;11.542;2023-04-25T14:03:55;10.00;99.90
45012;DHT22;63444;48.148;11.542;2023-04-25T14:06:21;10.00;99.90
45012;DHT22;63444;48.148;11.542;2023-04-25T14:08:50;10.00;99.90
45012;DHT22;63444;48.148;11.542;2023-04-25T14:11:15;9.90;99.90
45012;DHT22;63444;48.148;11.542;2023-04-25T14:13:44;9.90;99.90
45012;DHT22;63444;48.148;11.542;2023-04-25T14:16:09;9.80;99.90
45012;DHT22;63444;48.148;11.542;2023-04-25T14:18:35;9.80;99.90
45012;DHT22;63444;48.148;11.542;2023-04-25T14:21:01;9.70;99.90
45012;DHT22;63444;48.148;11.542;2023-04-25T14:23:27;9.80;99.90
45012;DHT22;63444;48.148;11.542;2023-04-25T14:25:53;9.70;99.90
45012;DHT22;63444;48.148;11.542;2023-04-25T14:28:19;9.70;99.90
45012;DHT22;63444;48.148;11.542;2023-04-25T14:30:45;9.70;99.90
45012;DHT22;63444;48.148;11.542;2023-04-25T14:33:13;9.90;99.90
45012;DHT22;63444;48.148;11.542;2023-04-25T14:35:39;10.00;99.90
45012;DHT22;63444;48.148;11.542;2023-04-25T14:38:08;10.00;99.90
45012;DHT22;63444;48.148;11.542;2023-04-25T14:40:34;10.00;99.90
45012;DHT22;63444;48.148;11.542;2023-04-25T14:42:59;10.00;99.90
45012;DHT22;63444;48.148;11.542;2023-04-25T14:45:25;10.00;99.90
45012;DHT22;63444;48.148;11.542;2023-04-25T14:47:51;10.00;99.90
45012;DHT22;63444;48.148;11.542;2023-04-25T14:50:17;10.10;99.90
45012;DHT22;63444;48.148;11.542;2023-04-25T14:52:42;10.00;99.90
45012;DHT22;63444;48.148;11.542;2023-04-25T14:55:09;10.00;99.90
45012;DHT22;63444;48.148;11.542;2023-04-25T14:57:35;10.00;99.90
45012;DHT22;63444;48.148;11.542;2023-04-25T15:00:01;10.00;99.90
45012;DHT22;63444;48.148;11.542;2023-04-25T15:02:28;10.00;99.90
45012;DHT22;63444;48.148;11.542;2023-04-25T15:04:54;10.00;99.90
45012;DHT22;63444;48.148;11.542;2023-04-25T15:07:21;9.90;99.90
45012;DHT22;63444;48.148;11.542;2023-04-25T15:09:47;9.90;99.90
45012;DHT22;63444;48.148;11.542;2023-04-25T15:12:13;10.00;99.90
45012;DHT22;63444;48.148;11.542;2023-04-25T15:14:40;9.90;99.90
45012;DHT22;63444;48.148;11.542;2023-04-25T15:17:05;9.70;99.90
45012;DHT22;63444;48.148;11.542;2023-04-25T15:19:31;9.70;99.90
45012;DHT22;63444;48.148;11.542;2023-04-25T15:21:58;9.70;99.90
45012;DHT22;63444;48.148;11.542;2023-04-25T15:24:26;9.70;99.90
45012;DHT22;63444;48.148;11.542;2023-04-25T15:26:52;9.70;99.90
45012;DHT22;63444;48.148;11.542;2023-04-25T15:29:18;9.80;99.90